KART/ART METAR and TAF weather

Enter ICAO airport designator
Station Type Date Time Source
KART METAR 2018/12/10 23:56 UTC NOAA

KART 102356Z AUTO 07006KT 10SM CLR M13/M15 A3020 RMK AO2 SLP237 I1001 I6001 T11331150 11044 21144 58003


Station Type Date Time Source
KART Decoded METAR 2018/12/10 23:56 UTC NOAA

WATERTOWN INTERNATIONAL AIRPORT, NY, United States (KART) 43-59N 076-02W 100M
Dec 10, 2018 - 06:56 PM EST / 2018.12.10 2356 UTC
Wind: from the ENE (070 degrees) at 7 MPH (6 KT):0
Visibility: 10 mile(s):0
Sky conditions: clear
Temperature: 8.1 F (-13.3 C)
Windchill: -4 F (-20 C):1
Dew Point: 5.0 F (-15.0 C)
Relative Humidity: 87%
Pressure (altimeter): 30.2 in. Hg (1022 hPa)
Pressure tendency: 0.01 inches (0.3 hPa) lower than three hours ago
ob: KART 102356Z AUTO 07006KT 10SM CLR M13/M15 A3020 RMK AO2 SLP237 I1001 I6001 T11331150 11044 21144 58003
cycle: 0

Station Type Date Time Source
KART TAF 2018/12/10 21:12 UTC NOAA

TAF
AMD KART 102109Z 1021/1118 05005KT P6SM SCT040
FM110400 00000KT P6SM BKN025
FM111200 17005KT P6SM OVC020


Example: see airport list